Airfield :
LOGIN :

Register | Disclaimer

   EN    FR    IT 

 










Legend :    VFR   Marginal VFR   IFR   Intensive IFR   Very Intensive IFR
Visi :
Ceiling :
>= 8 km
>= 3000ft
5 to 8 km
1000 to 3000 ft
1500m to 5 km
500 to 1000 ft
800 to 1500m
200 to 500 ft
< 800m
< 200 ft
Symbols :   Thunderstorms  Fog  Heavy snow  Heavy precipitations  Wind > 20 kt
SIGMETs :     Misc.  Thunderstorms  Icing  Turbulence  Mountain Waves  Volcanic Ashes






- Airport Elevation : 132 ft


EGXE - RAF Leeming

CURRENT METAR :
  • 212120Z 08004KT 9999 FEW022 OVC033 05/02 Q1002 BECMG SCT022 RMK BLU BECMG WHT

EXPIRED METARs :
  • 212050Z 07006KT 9999 FEW022 OVC033 05/02 Q1002 BECMG SCT022 RMK BLU BECMG WHT
  • 212020Z 07005KT 9999 FEW025 OVC032 06/02 Q1003 BECMG SCT022 RMK BLU BECMG WHT
  • 211950Z 07005KT 9999 FEW027 OVC032 05/02 Q1003 BECMG SCT020 RMK BLU BECMG WHT
  • 211920Z 08006KT 9999 OVC032 06/02 Q1003 BECMG SCT020 RMK BLU BECMG WHT
  • 211850Z 08005KT 9999 OVC033 05/02 Q1003 BECMG SCT022 RMK BLU BECMG WHT

TAF TAF EGXE
Valid from the 21 at 18:00 until the 21 at 23:00 UTC


211711Z 2118/2123 06006KT 9999 BKN026
TEMPO 2118/2120 BKN020
BECMG 2120/2123 BKN020



MET'MAP, your aeronautical weather chart ! - Copyright ORBIFLY December 2007 - Disclaimer

ORBIFLY MET'MAP TEAM :

Programming & Development : Alexandra Zaïnal
Concept & Development : Baudouin d'Aumeries
Co-Development & Prog : Marc-Olivier Méhu
Technical & hardware support : Manuel Goepfert

Contact : metmap@orbifly.com




SOURCES & CREDITS :

   NOAA